createdAt,value
2023-05-26T00:00:12.266Z,12.31
2023-05-26T00:05:14.649Z,12.15
2023-05-26T00:10:16.257Z,12.12
2023-05-26T00:15:18.018Z,12.11
2023-05-26T00:20:19.776Z,12.20
2023-05-26T00:25:21.455Z,12.16
2023-05-26T00:30:23.050Z,12.30
2023-05-26T00:35:24.691Z,12.37
2023-05-26T00:40:26.447Z,12.49
2023-05-26T00:45:28.044Z,12.51
2023-05-26T00:50:29.880Z,12.38
2023-05-26T00:55:32.327Z,12.36
2023-05-26T01:00:34.690Z,12.24
2023-05-26T01:05:36.278Z,12.21
2023-05-26T01:10:37.892Z,12.35
2023-05-26T01:15:57.478Z,12.24
2023-05-26T01:21:11.719Z,12.20
2023-05-26T01:26:50.737Z,12.12
2023-05-26T01:31:52.403Z,12.10
2023-05-26T01:36:54.005Z,11.94
2023-05-26T01:42:19.802Z,11.92
2023-05-26T01:47:33.288Z,11.94
2023-05-26T01:52:38.509Z,11.83
2023-05-26T01:57:43.996Z,11.82
2023-05-26T02:02:46.418Z,11.88
2023-05-26T02:07:48.135Z,11.92
2023-05-26T02:12:49.852Z,11.79
2023-05-26T02:17:51.463Z,11.73
2023-05-26T02:22:53.391Z,11.67
2023-05-26T02:27:55.033Z,11.58
2023-05-26T02:32:56.688Z,11.51
2023-05-26T02:37:58.374Z,11.37
2023-05-26T02:43:00.926Z,11.24
2023-05-26T02:48:02.497Z,11.24
2023-05-26T02:53:06.133Z,11.44
2023-05-26T02:58:07.793Z,11.10
2023-05-26T03:03:10.110Z,10.92
2023-05-26T03:08:11.759Z,10.60
2023-05-26T03:13:13.504Z,10.42
2023-05-26T03:18:15.365Z,10.32
2023-05-26T03:23:18.689Z,10.21
2023-05-26T03:28:20.360Z,10.14
2023-05-26T03:33:21.926Z,10.10
2023-05-26T03:38:23.639Z,10.07
2023-05-26T03:43:25.329Z,10.00
2023-05-26T03:48:27.757Z,10.06
2023-05-26T03:53:30.336Z,10.07
2023-05-26T03:58:32.617Z,10.16
2023-05-26T04:03:34.488Z,10.40
2023-05-26T04:08:36.548Z,10.64
2023-05-26T04:13:38.602Z,10.82
2023-05-26T04:18:40.929Z,10.92
2023-05-26T04:23:42.697Z,11.01
2023-05-26T04:28:44.406Z,11.12
2023-05-26T04:34:15.242Z,11.36
2023-05-26T04:39:31.904Z,11.39
2023-05-26T04:44:33.545Z,11.44
2023-05-26T04:49:36.941Z,11.56
2023-05-26T04:54:39.011Z,11.80
2023-05-26T04:59:40.943Z,11.92
2023-05-26T05:04:42.616Z,12.09
2023-05-26T05:09:44.358Z,12.37
2023-05-26T05:14:46.087Z,13.06
2023-05-26T05:19:49.599Z,13.29
2023-05-26T05:24:56.199Z,13.98
2023-05-26T05:29:57.837Z,14.35
2023-05-26T05:35:01.762Z,14.65
2023-05-26T05:40:05.531Z,15.56
2023-05-26T05:45:07.722Z,15.33
2023-05-26T05:50:41.353Z,16.25
2023-05-26T05:55:43.096Z,15.06
2023-05-26T06:00:45.121Z,16.29
2023-05-26T06:05:47.165Z,16.93
2023-05-26T06:10:49.183Z,16.57
2023-05-26T06:15:50.952Z,16.17
2023-05-26T06:20:54.622Z,17.07
2023-05-26T06:25:56.631Z,15.22
2023-05-26T06:30:58.626Z,16.74
2023-05-26T06:36:23.716Z,16.95
2023-05-26T06:41:26.681Z,17.96
2023-05-26T06:46:29.690Z,17.17
2023-05-26T06:51:31.340Z,18.11
2023-05-26T06:56:33.364Z,18.51
2023-05-26T07:01:35.829Z,18.65
2023-05-26T07:06:46.727Z,19.10
2023-05-26T07:11:50.375Z,19.62
2023-05-26T07:17:12.092Z,19.53
2023-05-26T07:22:15.200Z,19.04
2023-05-26T07:27:33.624Z,19.60
2023-05-26T07:32:35.519Z,20.41
2023-05-26T07:37:37.353Z,20.74
2023-05-26T07:42:38.968Z,20.16
2023-05-26T07:47:40.574Z,20.50
2023-05-26T07:52:42.311Z,19.90
2023-05-26T07:57:43.901Z,21.20
2023-05-26T08:02:45.615Z,21.01
2023-05-26T08:07:47.340Z,22.24
2023-05-26T08:12:49.106Z,21.91
2023-05-26T08:17:50.961Z,22.00
2023-05-26T08:22:52.623Z,23.00
2023-05-26T08:27:54.547Z,23.60
2023-05-26T08:32:56.229Z,22.61
2023-05-26T08:37:57.879Z,22.31
2023-05-26T08:43:03.873Z,23.14
2023-05-26T08:48:09.251Z,23.02
2023-05-26T08:53:10.882Z,23.70
2023-05-26T08:58:14.689Z,23.71
2023-05-26T09:03:16.405Z,24.40
2023-05-26T09:08:18.100Z,23.50
2023-05-26T09:13:19.921Z,22.95
2023-05-26T09:18:21.610Z,24.12
2023-05-26T09:23:23.309Z,24.01
2023-05-26T09:28:24.921Z,24.63
2023-05-26T09:33:26.528Z,24.38
2023-05-26T09:38:28.162Z,23.91
2023-05-26T09:43:34.078Z,21.72
2023-05-26T09:48:36.027Z,23.58
2023-05-26T09:53:37.586Z,23.32
2023-05-26T09:58:40.612Z,25.33
2023-05-26T10:03:42.365Z,24.51
2023-05-26T10:08:46.579Z,24.18
2023-05-26T10:13:48.388Z,24.21
2023-05-26T10:18:50.836Z,24.93
2023-05-26T10:24:02.940Z,26.39
2023-05-26T10:29:07.801Z,23.83
2023-05-26T10:34:14.037Z,26.14
2023-05-26T10:39:19.099Z,26.50
2023-05-26T10:44:40.928Z,26.18
2023-05-26T10:49:51.883Z,27.33
2023-05-26T10:54:53.672Z,27.49
2023-05-26T10:59:55.241Z,25.86
2023-05-26T11:04:56.902Z,26.48
2023-05-26T11:10:05.588Z,27.29
2023-05-26T11:15:29.252Z,26.40
2023-05-26T11:20:30.958Z,26.86
2023-05-26T11:25:44.528Z,26.85
2023-05-26T11:30:46.091Z,26.88
2023-05-26T11:35:47.669Z,26.90
2023-05-26T11:40:49.788Z,26.48
2023-05-26T11:45:54.875Z,25.30
2023-05-26T11:50:56.753Z,24.95
2023-05-26T11:56:38.495Z,27.50
2023-05-26T12:01:40.146Z,26.34
2023-05-26T12:06:43.708Z,24.98
2023-05-26T12:11:47.406Z,25.83
2023-05-26T12:16:50.488Z,25.63
2023-05-26T12:21:54.608Z,26.65
2023-05-26T12:26:56.333Z,27.79
2023-05-26T12:31:58.194Z,28.14
2023-05-26T12:36:59.940Z,28.76
2023-05-26T12:42:01.606Z,26.32
2023-05-26T12:47:03.228Z,26.96
2023-05-26T12:52:04.914Z,27.08
2023-05-26T12:57:06.487Z,26.79
2023-05-26T13:02:08.607Z,26.65
2023-05-26T13:07:10.344Z,27.24
2023-05-26T13:12:12.019Z,28.89
2023-05-26T13:17:13.596Z,27.97
2023-05-26T13:22:15.212Z,28.30
2023-05-26T13:27:16.777Z,28.78
2023-05-26T13:32:18.401Z,27.65
2023-05-26T13:37:20.036Z,28.30
2023-05-26T13:42:21.743Z,27.88
2023-05-26T13:47:26.145Z,27.72
2023-05-26T13:52:28.415Z,27.15
2023-05-26T13:57:30.770Z,25.85
2023-05-26T14:02:33.238Z,27.84
2023-05-26T14:07:35.052Z,26.59
2023-05-26T14:12:36.682Z,25.04
2023-05-26T14:17:39.068Z,25.26
2023-05-26T14:22:41.261Z,26.44
2023-05-26T14:27:43.236Z,24.94
2023-05-26T14:32:46.402Z,26.16
2023-05-26T14:37:50.163Z,25.95
2023-05-26T14:42:51.747Z,27.14
2023-05-26T14:47:53.899Z,25.68
2023-05-26T14:52:55.545Z,27.17
2023-05-26T14:57:57.105Z,27.45
2023-05-26T15:02:58.754Z,26.18
2023-05-26T15:08:01.476Z,27.86
2023-05-26T15:13:03.182Z,25.11
2023-05-26T15:18:05.897Z,26.95
2023-05-26T15:23:07.904Z,26.42
2023-05-26T15:28:09.643Z,25.55
2023-05-26T15:33:11.276Z,25.80
2023-05-26T15:38:12.905Z,25.47
2023-05-26T15:43:14.858Z,26.01
2023-05-26T15:48:17.883Z,26.73
2023-05-26T15:53:19.541Z,25.06
2023-05-26T15:58:21.218Z,25.36
2023-05-26T16:03:22.909Z,23.52
2023-05-26T16:08:24.525Z,23.56
2023-05-26T16:13:26.076Z,25.09
2023-05-26T16:18:27.666Z,24.33
2023-05-26T16:23:29.480Z,25.18
2023-05-26T16:28:31.729Z,24.85
2023-05-26T16:33:33.335Z,24.83
2023-05-26T16:38:34.968Z,23.75
2023-05-26T16:43:47.902Z,23.35
2023-05-26T16:48:50.315Z,23.83
2023-05-26T16:53:51.875Z,23.51
2023-05-26T16:58:53.481Z,23.82
2023-05-26T17:03:55.052Z,23.32
2023-05-26T17:08:56.792Z,22.58
2023-05-26T17:13:58.389Z,22.80
2023-05-26T17:18:59.947Z,23.88
2023-05-26T17:24:01.641Z,23.42
2023-05-26T17:29:03.220Z,22.38
2023-05-26T17:34:04.859Z,22.80
2023-05-26T17:39:06.985Z,22.51
2023-05-26T17:44:10.666Z,21.61
2023-05-26T17:49:13.763Z,22.21
2023-05-26T17:54:15.297Z,21.63
2023-05-26T17:59:16.876Z,21.87
2023-05-26T18:04:18.619Z,21.50
2023-05-26T18:09:20.269Z,21.27
2023-05-26T18:14:21.879Z,21.02
2023-05-26T18:19:23.459Z,20.67
2023-05-26T18:24:25.135Z,20.41
2023-05-26T18:29:26.709Z,20.17
2023-05-26T18:34:28.301Z,19.85
2023-05-26T18:39:30.290Z,19.75
2023-05-26T18:44:31.831Z,19.78
2023-05-26T18:49:33.542Z,19.61
2023-05-26T18:54:35.118Z,19.38
2023-05-26T18:59:36.662Z,19.14
2023-05-26T19:04:38.523Z,19.02
2023-05-26T19:09:40.063Z,18.86
2023-05-26T19:14:41.619Z,18.65
2023-05-26T19:19:43.167Z,18.56
2023-05-26T19:24:44.833Z,18.40
2023-05-26T19:29:46.389Z,18.17
2023-05-26T19:34:48.164Z,18.08
2023-05-26T19:39:49.694Z,17.76
2023-05-26T19:44:51.236Z,17.76
2023-05-26T19:49:52.970Z,17.52
2023-05-26T19:54:54.500Z,17.28
2023-05-26T19:59:56.096Z,17.04
2023-05-26T20:04:57.628Z,17.35
2023-05-26T20:09:59.160Z,17.28
2023-05-26T20:15:01.918Z,17.20
2023-05-26T20:20:12.637Z,17.04
2023-05-26T20:25:15.356Z,16.94
2023-05-26T20:30:16.941Z,17.06
2023-05-26T20:35:18.696Z,16.90
2023-05-26T20:40:20.321Z,16.80
2023-05-26T20:45:21.865Z,16.51
2023-05-26T20:50:23.563Z,16.39
2023-05-26T20:55:25.583Z,16.27
2023-05-26T21:00:27.127Z,16.22
2023-05-26T21:05:28.696Z,16.21
2023-05-26T21:10:30.229Z,16.22
2023-05-26T21:15:31.860Z,16.06
2023-05-26T21:20:33.492Z,16.32
2023-05-26T21:25:35.041Z,16.20
2023-05-26T21:30:36.670Z,16.10
2023-05-26T21:35:38.276Z,16.09
2023-05-26T21:40:39.809Z,15.97
2023-05-26T21:45:41.350Z,15.87
2023-05-26T21:50:42.960Z,15.72
2023-05-26T21:55:44.539Z,15.70
2023-05-26T22:00:46.094Z,15.67
2023-05-26T22:05:47.713Z,15.56
2023-05-26T22:10:49.277Z,15.44
2023-05-26T22:15:50.845Z,15.41
2023-05-26T22:20:52.449Z,15.28
2023-05-26T22:25:54.401Z,15.16
2023-05-26T22:30:57.762Z,14.99
2023-05-26T22:35:59.462Z,14.80
2023-05-26T22:41:01.086Z,14.66
2023-05-26T22:46:02.636Z,14.48
2023-05-26T22:51:04.305Z,14.45
2023-05-26T22:56:13.534Z,14.15
2023-05-26T23:01:15.980Z,13.99
2023-05-26T23:06:17.651Z,13.98
2023-05-26T23:11:19.383Z,13.80
2023-05-26T23:16:21.066Z,13.59
2023-05-26T23:21:22.698Z,13.28
2023-05-26T23:26:24.299Z,13.14
2023-05-26T23:31:25.916Z,12.78
2023-05-26T23:36:27.619Z,12.75
2023-05-26T23:41:29.261Z,12.84
2023-05-26T23:46:30.930Z,12.53
2023-05-26T23:51:32.515Z,12.30
2023-05-26T23:56:34.204Z,12.12
